Time;durP1;ratioP1;P1;durP2;ratioP2;P2;SDS_P1;SDS_P2;PMS_P1;PMS_P2;Temp;Humidity;BMP_temperature;BMP_pressure;BME280_temperature;BME280_humidity;BME280_pressure;Samples;Min_cycle;Max_cycle;Signal;HPM_P1;HPM_P2
2021/08/06 00:01:45;;;;;;;4.07;2.45;;;17.80;81.40;;;;;;5054061;28;20163;-36
2021/08/06 00:04:11;;;;;;;3.28;2.30;;;17.80;81.40;;;;;;5052846;28;20017;-36
2021/08/06 00:06:40;;;;;;;2.53;2.33;;;17.80;81.90;;;;;;5054104;28;20031;-37
2021/08/06 00:09:07;;;;;;;2.47;2.28;;;17.80;81.70;;;;;;5053919;28;20029;-36
2021/08/06 00:11:33;;;;;;;3.28;2.60;;;17.80;81.90;;;;;;5054123;28;20025;-37
2021/08/06 00:14:01;;;;;;;4.47;2.38;;;17.80;81.80;;;;;;5054182;28;20027;-38
2021/08/06 00:16:27;;;;;;;4.93;2.78;;;17.90;81.50;;;;;;5053385;28;20068;-37
2021/08/06 00:18:53;;;;;;;4.50;2.50;;;17.80;81.80;;;;;;5053653;28;20048;-38
2021/08/06 00:21:18;;;;;;;2.75;2.10;;;17.80;82.00;;;;;;5053652;28;20495;-38
2021/08/06 00:23:45;;;;;;;2.80;2.47;;;17.80;82.20;;;;;;5053810;28;20196;-38
2021/08/06 00:26:11;;;;;;;4.28;2.80;;;17.70;82.40;;;;;;5053992;28;20338;-37
2021/08/06 00:28:37;;;;;;;5.90;3.30;;;17.80;82.40;;;;;;5053659;28;20378;-37
2021/08/06 00:31:03;;;;;;;3.72;2.50;;;17.80;82.60;;;;;;5053476;28;20044;-37
2021/08/06 00:33:28;;;;;;;5.72;3.45;;;17.80;82.80;;;;;;5053574;28;20024;-37
2021/08/06 00:35:54;;;;;;;3.53;2.83;;;17.80;82.90;;;;;;5053505;28;20029;-38
2021/08/06 00:38:19;;;;;;;4.15;2.90;;;17.80;82.80;;;;;;5053480;28;20040;-37
2021/08/06 00:40:45;;;;;;;5.82;2.60;;;17.80;82.90;;;;;;5053412;28;20025;-37
2021/08/06 00:43:11;;;;;;;3.13;2.42;;;17.80;82.90;;;;;;5053409;28;20036;-37
2021/08/06 00:45:36;;;;;;;5.20;2.60;;;17.80;83.00;;;;;;5053337;28;20448;-37
2021/08/06 00:48:03;;;;;;;2.90;2.63;;;17.80;83.40;;;;;;5053286;28;20041;-37
2021/08/06 00:50:29;;;;;;;7.80;2.83;;;17.80;83.30;;;;;;5053508;28;20021;-37
2021/08/06 00:52:55;;;;;;;2.90;2.65;;;17.80;83.40;;;;;;5053421;28;20107;-37
2021/08/06 00:55:21;;;;;;;4.30;2.00;;;17.80;83.40;;;;;;5053172;28;20388;-37
2021/08/06 00:57:46;;;;;;;4.03;2.63;;;17.80;83.30;;;;;;5053190;28;20017;-37
2021/08/06 01:00:13;;;;;;;4.53;2.47;;;17.80;82.90;;;;;;5052850;28;20080;-38
2021/08/06 01:02:52;;;;;;;3.67;2.70;;;17.90;82.80;;;;;;5053162;28;20372;-37
2021/08/06 01:05:21;;;;;;;4.80;2.63;;;17.80;83.40;;;;;;5053141;28;20021;-37
2021/08/06 01:07:54;;;;;;;4.00;2.75;;;17.80;83.40;;;;;;5051514;28;20025;-37
2021/08/06 01:10:28;;;;;;;3.10;2.78;;;17.80;83.70;;;;;;5052858;28;20063;-37
2021/08/06 01:12:57;;;;;;;2.95;2.55;;;17.80;83.80;;;;;;5051345;28;20091;-37
2021/08/06 01:15:23;;;;;;;5.55;3.03;;;17.80;83.80;;;;;;5052979;28;20090;-37
2021/08/06 01:17:50;;;;;;;4.25;2.50;;;17.90;83.70;;;;;;5052715;28;20036;-37
2021/08/06 01:20:22;;;;;;;4.50;2.83;;;18.00;83.40;;;;;;5052418;28;20029;-37
2021/08/06 01:22:54;;;;;;;13.85;4.60;;;17.90;83.30;;;;;;5052602;28;20025;-37
2021/08/06 01:25:46;;;;;;;4.60;2.50;;;17.90;83.30;;;;;;5052529;28;20021;-37
2021/08/06 01:28:15;;;;;;;2.53;2.15;;;17.80;83.50;;;;;;5052308;28;20021;-37
2021/08/06 01:30:41;;;;;;;2.40;2.20;;;17.80;83.80;;;;;;5052767;28;20048;-37
2021/08/06 01:33:07;;;;;;;3.42;2.63;;;17.80;83.60;;;;;;5052346;28;20041;-37
2021/08/06 01:35:33;;;;;;;3.72;2.00;;;17.70;83.90;;;;;;5052287;28;20033;-37
2021/08/06 01:37:59;;;;;;;2.80;2.58;;;17.80;84.00;;;;;;5051182;28;20032;-37
2021/08/06 01:40:25;;;;;;;3.65;2.75;;;17.80;83.90;;;;;;5052520;28;20025;-37
2021/08/06 01:43:05;;;;;;;4.28;2.67;;;17.80;84.10;;;;;;5051172;28;20029;-37
2021/08/06 01:45:37;;;;;;;4.65;2.65;;;17.80;84.00;;;;;;5052588;28;20484;-37
2021/08/06 01:48:06;;;;;;;3.97;3.00;;;17.90;83.50;;;;;;5052371;28;20066;-38
2021/08/06 01:50:36;;;;;;;4.93;2.60;;;18.00;82.90;;;;;;5052280;28;20025;-37
2021/08/06 01:53:05;;;;;;;3.30;2.70;;;18.10;82.40;;;;;;5052839;28;20044;-37
2021/08/06 01:55:43;;;;;;;3.10;2.78;;;18.10;82.70;;;;;;5052322;28;20033;-38
2021/08/06 01:58:11;;;;;;;2.33;2.08;;;18.00;83.00;;;;;;5052525;28;20203;-37
2021/08/06 02:00:39;;;;;;;2.63;2.15;;;17.90;83.10;;;;;;5052082;28;20074;-37
2021/08/06 02:03:06;;;;;;;3.00;2.75;;;17.80;83.50;;;;;;5052369;28;20018;-38
2021/08/06 02:05:34;;;;;;;3.85;2.83;;;17.80;83.60;;;;;;5052138;28;20036;-37
2021/08/06 02:08:02;;;;;;;4.68;3.00;;;17.80;83.60;;;;;;5052075;28;20071;-37
2021/08/06 02:10:29;;;;;;;2.70;2.17;;;17.80;83.60;;;;;;5052096;28;20035;-37
2021/08/06 02:12:55;;;;;;;3.97;3.40;;;17.80;83.70;;;;;;5052378;28;20096;-38
2021/08/06 02:15:21;;;;;;;3.55;2.67;;;17.80;83.90;;;;;;5052012;28;20071;-37
2021/08/06 02:17:49;;;;;;;2.40;2.20;;;17.80;83.70;;;;;;5052070;28;20052;-37
2021/08/06 02:20:16;;;;;;;3.45;2.55;;;17.80;83.50;;;;;;5051893;28;20387;-37
2021/08/06 02:22:44;;;;;;;5.75;2.40;;;17.90;83.50;;;;;;5052033;28;20104;-37
2021/08/06 02:25:13;;;;;;;4.22;2.67;;;17.90;83.30;;;;;;5052002;28;20167;-37
2021/08/06 02:27:40;;;;;;;7.38;2.53;;;17.90;83.10;;;;;;5051057;28;20021;-37
2021/08/06 02:30:06;;;;;;;6.25;2.35;;;18.00;83.30;;;;;;5052178;28;20468;-37
2021/08/06 02:32:32;;;;;;;3.53;2.63;;;17.90;82.90;;;;;;5051783;28;20045;-37
2021/08/06 02:34:59;;;;;;;8.07;2.90;;;17.90;83.00;;;;;;5051762;28;20056;-37
2021/08/06 02:37:26;;;;;;;3.30;2.88;;;17.90;83.20;;;;;;5052105;28;20056;-37
2021/08/06 02:39:52;;;;;;;3.58;2.78;;;17.80;83.30;;;;;;5051881;28;20025;-37
2021/08/06 02:42:17;;;;;;;3.78;3.00;;;17.80;83.50;;;;;;5055479;28;20029;-37
2021/08/06 02:44:43;;;;;;;4.18;2.72;;;17.70;83.90;;;;;;5055586;28;20029;-37
2021/08/06 02:47:09;;;;;;;3.83;3.50;;;17.70;84.10;;;;;;5055332;28;20021;-37
2021/08/06 02:49:36;;;;;;;4.28;3.35;;;17.60;84.10;;;;;;5055800;28;20051;-37
2021/08/06 02:52:04;;;;;;;4.95;2.72;;;17.70;84.30;;;;;;5055265;28;20025;-37
2021/08/06 02:54:31;;;;;;;3.78;3.10;;;17.80;83.80;;;;;;5055416;28;20048;-37
2021/08/06 02:56:57;;;;;;;4.68;3.30;;;17.70;83.90;;;;;;5055722;28;20043;-37
2021/08/06 02:59:23;;;;;;;4.93;2.65;;;17.70;83.90;;;;;;5055383;28;20350;-37
2021/08/06 03:01:49;;;;;;;4.22;2.97;;;17.60;84.10;;;;;;5055284;28;20032;-38
2021/08/06 03:04:14;;;;;;;5.95;2.85;;;17.50;84.20;;;;;;5055285;28;20104;-37
2021/08/06 03:06:40;;;;;;;3.30;2.90;;;17.50;84.50;;;;;;5055279;28;20025;-37
2021/08/06 03:09:06;;;;;;;2.97;2.67;;;17.60;84.10;;;;;;5055160;28;20489;-37
2021/08/06 03:11:31;;;;;;;4.10;2.97;;;17.50;84.30;;;;;;5055369;28;20036;-37
2021/08/06 03:13:57;;;;;;;6.97;3.13;;;17.50;83.90;;;;;;5055345;28;20029;-37
2021/08/06 03:16:23;;;;;;;3.20;2.75;;;17.40;84.30;;;;;;5055124;28;20033;-37
2021/08/06 03:18:48;;;;;;;4.63;2.97;;;17.50;84.20;;;;;;5055265;28;20036;-37
2021/08/06 03:21:15;;;;;;;3.00;2.55;;;17.50;83.90;;;;;;5054910;28;20376;-37
2021/08/06 03:23:40;;;;;;;5.63;3.15;;;17.50;84.30;;;;;;5055165;28;20469;-36
2021/08/06 03:26:06;;;;;;;4.13;2.80;;;17.50;83.70;;;;;;5055109;28;20021;-37
2021/08/06 03:28:32;;;;;;;6.38;3.10;;;17.50;84.10;;;;;;5055074;28;20457;-37
2021/08/06 03:30:57;;;;;;;5.38;3.45;;;17.50;84.10;;;;;;5054920;28;20025;-36
2021/08/06 03:33:23;;;;;;;13.98;3.33;;;17.50;83.80;;;;;;5055071;28;20037;-36
2021/08/06 03:35:49;;;;;;;3.83;2.90;;;17.50;83.50;;;;;;5054949;28;20090;-36
2021/08/06 03:38:20;;;;;;;4.28;3.30;;;17.50;84.00;;;;;;5055012;28;20040;-37
2021/08/06 03:40:47;;;;;;;3.35;2.70;;;17.60;83.50;;;;;;5055229;28;20131;-36
2021/08/06 03:43:13;;;;;;;5.57;2.65;;;17.60;83.10;;;;;;5053176;28;20024;-36
2021/08/06 03:45:39;;;;;;;2.83;2.53;;;17.70;83.00;;;;;;5054488;28;20064;-36
2021/08/06 03:48:05;;;;;;;4.38;2.80;;;17.70;82.80;;;;;;5054415;28;20021;-36
2021/08/06 03:50:31;;;;;;;4.65;2.55;;;17.70;83.00;;;;;;5054822;28;20056;-36
2021/08/06 03:52:57;;;;;;;4.18;2.60;;;17.60;83.40;;;;;;5054235;28;20025;-36
2021/08/06 03:55:22;;;;;;;3.50;2.83;;;17.60;84.20;;;;;;5054336;28;20190;-35
2021/08/06 03:57:53;;;;;;;4.53;2.50;;;17.50;84.50;;;;;;5054689;28;20071;-36
2021/08/06 04:00:20;;;;;;;2.42;2.22;;;17.50;84.80;;;;;;5054167;28;20025;-37
2021/08/06 04:02:46;;;;;;;4.43;2.60;;;17.40;84.90;;;;;;5052934;28;20024;-37
2021/08/06 04:05:12;;;;;;;3.47;2.90;;;17.50;84.00;;;;;;5054491;28;20023;-37
2021/08/06 04:07:48;;;;;;;9.55;2.97;;;17.50;84.50;;;;;;5054048;28;20029;-37
2021/08/06 04:10:17;;;;;;;4.68;2.63;;;17.50;84.30;;;;;;5054280;28;20033;-37
2021/08/06 04:12:45;;;;;;;4.15;2.65;;;17.50;84.10;;;;;;5053852;28;20096;-37
2021/08/06 04:15:11;;;;;;;3.25;2.92;;;17.60;84.10;;;;;;5054171;28;20063;-37
2021/08/06 04:17:36;;;;;;;4.15;2.92;;;17.60;84.20;;;;;;5053891;28;20416;-37
2021/08/06 04:20:03;;;;;;;4.18;3.05;;;17.40;85.10;;;;;;5053715;28;20029;-37
2021/08/06 04:22:28;;;;;;;5.15;3.80;;;17.30;85.70;;;;;;5053865;28;20053;-37
2021/08/06 04:24:54;;;;;;;4.47;2.60;;;17.30;87.10;;;;;;5053977;28;20029;-37
2021/08/06 04:27:19;;;;;;;9.30;2.85;;;17.30;87.10;;;;;;5054561;28;20135;-37
2021/08/06 04:29:45;;;;;;;6.22;2.92;;;17.30;86.70;;;;;;5054133;28;20025;-37
2021/08/06 04:32:11;;;;;;;8.27;3.10;;;17.10;87.40;;;;;;5053381;28;20558;-37
2021/08/06 04:34:36;;;;;;;3.60;2.85;;;17.10;87.50;;;;;;5053523;28;20025;-36
2021/08/06 04:37:02;;;;;;;3.50;2.75;;;17.20;87.70;;;;;;5053734;28;20079;-37
2021/08/06 04:39:28;;;;;;;4.35;3.35;;;17.10;88.00;;;;;;5053392;28;20030;-37
2021/08/06 04:41:54;;;;;;;3.78;2.65;;;17.30;88.00;;;;;;5053350;28;20051;-36
2021/08/06 04:44:19;;;;;;;3.28;2.83;;;17.10;88.10;;;;;;5053365;28;20358;-36
2021/08/06 04:46:45;;;;;;;3.17;2.42;;;17.20;88.10;;;;;;5053638;28;20032;-36
2021/08/06 04:49:11;;;;;;;2.97;2.65;;;17.20;88.40;;;;;;5053398;28;20048;-36
2021/08/06 04:51:37;;;;;;;4.80;2.67;;;17.20;88.20;;;;;;5053223;28;20097;-35
2021/08/06 04:54:04;;;;;;;4.25;2.33;;;17.30;88.00;;;;;;5053636;28;20029;-36
2021/08/06 04:56:30;;;;;;;3.22;2.60;;;17.30;87.80;;;;;;5053276;28;20029;-36
2021/08/06 04:58:55;;;;;;;3.83;2.45;;;17.30;88.10;;;;;;5053086;28;20028;-36
2021/08/06 05:01:21;;;;;;;4.13;2.72;;;17.30;88.10;;;;;;5052985;28;20123;-35
2021/08/06 05:03:46;;;;;;;2.33;2.13;;;17.30;87.90;;;;;;5052547;28;20017;-36
2021/08/06 05:06:13;;;;;;;2.20;1.67;;;17.30;88.20;;;;;;5053021;28;20032;-36
2021/08/06 05:08:42;;;;;;;3.63;2.10;;;17.20;88.60;;;;;;5052917;28;20024;-36
2021/08/06 05:11:07;;;;;;;5.40;2.83;;;17.20;88.70;;;;;;5051565;28;20048;-36
2021/08/06 05:13:33;;;;;;;2.83;2.42;;;17.30;88.70;;;;;;5053071;28;20037;-36
2021/08/06 05:15:59;;;;;;;6.07;2.92;;;17.30;88.70;;;;;;5052536;28;20107;-36
2021/08/06 05:18:24;;;;;;;4.35;2.92;;;17.30;88.90;;;;;;5051118;28;20032;-36
2021/08/06 05:20:50;;;;;;;3.40;2.67;;;17.30;88.60;;;;;;5052620;28;20032;-36
2021/08/06 05:23:16;;;;;;;4.43;3.35;;;17.40;88.60;;;;;;5051450;28;20051;-36
2021/08/06 05:25:41;;;;;;;4.68;2.60;;;17.40;88.70;;;;;;5052745;28;20025;-37
2021/08/06 05:28:07;;;;;;;4.10;2.67;;;17.50;88.80;;;;;;5052978;28;20533;-36
2021/08/06 05:30:33;;;;;;;2.50;2.30;;;17.30;88.90;;;;;;5052519;28;20139;-36
2021/08/06 05:32:58;;;;;;;3.20;2.60;;;17.40;89.00;;;;;;5052897;28;20053;-36
2021/08/06 05:35:24;;;;;;;3.42;2.50;;;17.50;88.90;;;;;;5052732;28;20032;-36
2021/08/06 05:37:49;;;;;;;4.32;3.20;;;17.60;88.30;;;;;;5052548;28;20521;-36
2021/08/06 05:40:15;;;;;;;4.07;2.63;;;17.70;88.00;;;;;;5052539;28;20025;-36
2021/08/06 05:42:41;;;;;;;3.60;3.03;;;17.80;87.80;;;;;;5052816;28;20025;-36
2021/08/06 05:45:07;;;;;;;3.95;2.78;;;17.80;87.40;;;;;;5051146;28;20032;-36
2021/08/06 05:47:47;;;;;;;5.78;2.60;;;17.70;88.00;;;;;;5052497;28;20028;-36
2021/08/06 05:50:14;;;;;;;2.90;2.58;;;17.70;88.00;;;;;;5052239;28;20041;-36
2021/08/06 05:52:40;;;;;;;4.82;2.58;;;17.80;87.80;;;;;;5052339;28;20099;-36
2021/08/06 05:55:07;;;;;;;3.15;2.85;;;17.80;87.80;;;;;;5052227;28;20075;-35
2021/08/06 05:57:32;;;;;;;6.18;3.20;;;17.80;87.60;;;;;;5052566;28;20588;-36
2021/08/06 05:59:58;;;;;;;2.88;2.30;;;17.70;88.00;;;;;;5052364;28;20049;-36
2021/08/06 06:02:24;;;;;;;5.40;2.85;;;17.70;88.00;;;;;;5052026;28;20021;-36
2021/08/06 06:04:49;;;;;;;2.40;2.20;;;17.80;87.60;;;;;;5050716;28;20511;-36
2021/08/06 06:07:15;;;;;;;4.15;2.88;;;17.80;87.90;;;;;;5051830;28;20111;-36
2021/08/06 06:09:40;;;;;;;3.22;2.70;;;18.00;87.00;;;;;;5051801;28;20111;-37
2021/08/06 06:12:07;;;;;;;3.78;2.60;;;18.10;86.40;;;;;;5051956;28;20102;-36
2021/08/06 06:14:32;;;;;;;4.93;2.95;;;18.00;87.30;;;;;;5052185;28;20049;-36
2021/08/06 06:16:58;;;;;;;4.32;2.45;;;18.00;86.70;;;;;;5055373;28;20063;-36
2021/08/06 06:19:24;;;;;;;4.90;4.28;;;18.00;86.60;;;;;;5055697;28;20111;-36
2021/08/06 06:21:49;;;;;;;6.28;2.75;;;17.80;87.70;;;;;;5055595;28;20037;-36
2021/08/06 06:24:15;;;;;;;5.57;2.53;;;17.90;87.30;;;;;;5055915;28;20032;-36
2021/08/06 06:26:41;;;;;;;6.90;2.95;;;18.20;86.30;;;;;;5055724;28;20049;-36
2021/08/06 06:29:06;;;;;;;17.58;4.07;;;18.40;85.50;;;;;;5054355;28;20017;-36
2021/08/06 06:31:32;;;;;;;4.68;3.00;;;18.40;85.60;;;;;;5055450;28;20439;-36
2021/08/06 06:34:00;;;;;;;4.20;2.72;;;18.70;84.70;;;;;;5055529;28;20029;-37
2021/08/06 06:36:26;;;;;;;5.55;2.83;;;18.80;83.40;;;;;;5055409;28;20052;-38
2021/08/06 06:38:52;;;;;;;3.25;2.40;;;18.70;84.70;;;;;;5055756;28;20029;-37
2021/08/06 06:41:17;;;;;;;2.78;2.40;;;18.60;84.20;;;;;;5053850;28;20079;-37
2021/08/06 06:43:43;;;;;;;2.25;2.05;;;18.80;83.80;;;;;;5055039;28;20025;-37
2021/08/06 06:46:09;;;;;;;2.25;2.05;;;18.90;83.00;;;;;;5054952;28;20025;-38
2021/08/06 06:48:34;;;;;;;2.08;1.88;;;18.80;83.20;;;;;;5054819;28;20484;-37
2021/08/06 06:51:00;;;;;;;2.80;1.70;;;18.60;83.90;;;;;;5055379;28;20021;-37
2021/08/06 06:53:26;;;;;;;6.40;2.70;;;18.80;83.60;;;;;;5055636;28;20051;-38
2021/08/06 06:55:51;;;;;;;1.80;1.70;;;19.00;83.40;;;;;;5054927;28;20056;-37
2021/08/06 06:58:18;;;;;;;3.17;2.88;;;19.00;82.70;;;;;;5053301;28;20025;-36
2021/08/06 07:00:44;;;;;;;4.07;1.95;;;18.90;82.80;;;;;;5053399;28;20029;-37
2021/08/06 07:03:10;;;;;;;3.97;2.70;;;19.00;82.90;;;;;;5055252;28;20428;-39
2021/08/06 07:05:36;;;;;;;6.53;2.47;;;18.60;83.40;;;;;;5055422;28;20025;-36
2021/08/06 07:08:02;;;;;;;2.33;2.13;;;18.50;84.60;;;;;;5053628;28;20472;-37
2021/08/06 07:10:28;;;;;;;3.47;2.15;;;18.50;84.20;;;;;;5055721;28;20112;-37
2021/08/06 07:12:55;;;;;;;4.25;2.75;;;18.60;84.10;;;;;;5055006;28;20025;-37
2021/08/06 07:15:21;;;;;;;5.07;2.28;;;18.60;83.50;;;;;;5054765;28;20047;-37
2021/08/06 07:17:47;;;;;;;5.70;2.17;;;18.70;83.30;;;;;;5055071;28;20432;-37
2021/08/06 07:20:17;;;;;;;3.80;2.08;;;18.80;83.50;;;;;;5055522;28;20034;-37
2021/08/06 07:22:43;;;;;;;2.97;2.28;;;18.80;83.30;;;;;;5056539;28;20032;-39
2021/08/06 07:25:10;;;;;;;2.10;1.77;;;18.80;83.60;;;;;;5054129;28;20380;-37
2021/08/06 07:27:37;;;;;;;5.03;2.33;;;18.70;83.00;;;;;;5054392;28;20099;-36
2021/08/06 07:30:04;;;;;;;4.38;2.20;;;18.80;83.50;;;;;;5054469;28;20032;-36
2021/08/06 07:32:30;;;;;;;3.00;2.10;;;18.70;84.00;;;;;;5054003;28;20087;-37
2021/08/06 07:34:56;;;;;;;4.72;2.03;;;18.60;83.90;;;;;;5054561;28;20029;-36
2021/08/06 07:37:22;;;;;;;4.30;2.55;;;18.50;84.80;;;;;;5054455;28;20021;-36
2021/08/06 07:39:49;;;;;;;3.13;2.55;;;18.70;85.10;;;;;;5054230;28;20053;-37
2021/08/06 07:42:15;;;;;;;4.60;2.35;;;18.70;84.70;;;;;;5053930;28;20491;-36
2021/08/06 07:44:41;;;;;;;5.68;2.97;;;18.50;85.90;;;;;;5054591;28;20068;-38
2021/08/06 07:47:07;;;;;;;4.38;2.53;;;18.60;86.40;;;;;;5054925;28;20056;-39
2021/08/06 07:49:33;;;;;;;3.83;2.33;;;19.00;84.90;;;;;;5054463;28;20025;-38
2021/08/06 07:51:59;;;;;;;5.15;3.55;;;19.00;84.30;;;;;;5053885;28;20025;-38
2021/08/06 07:54:24;;;;;;;6.63;2.30;;;19.10;84.70;;;;;;5053873;28;20032;-38
2021/08/06 07:56:50;;;;;;;4.07;2.17;;;18.80;85.20;;;;;;5053948;28;20066;-38
2021/08/06 07:59:19;;;;;;;3.60;2.17;;;19.00;85.10;;;;;;5054161;28;20366;-38
2021/08/06 08:01:45;;;;;;;2.72;1.85;;;19.00;84.50;;;;;;5053937;28;20469;-38
2021/08/06 08:04:11;;;;;;;7.68;2.33;;;19.00;85.30;;;;;;5054762;28;20055;-37
2021/08/06 08:06:37;;;;;;;3.13;2.03;;;19.00;84.80;;;;;;5054480;28;20334;-38
2021/08/06 08:09:02;;;;;;;3.17;2.05;;;19.30;83.10;;;;;;5054814;28;20048;-38
2021/08/06 08:11:29;;;;;;;5.57;2.35;;;19.30;83.50;;;;;;5054702;28;20021;-38
2021/08/06 08:13:54;;;;;;;2.83;2.08;;;19.40;83.10;;;;;;5052936;28;20025;-37
2021/08/06 08:16:20;;;;;;;3.80;1.88;;;19.30;82.70;;;;;;5054426;28;20021;-38
2021/08/06 08:18:46;;;;;;;5.25;2.00;;;19.20;82.80;;;;;;5054261;28;20031;-38
2021/08/06 08:21:12;;;;;;;3.72;2.15;;;19.40;81.90;;;;;;5054254;28;20108;-38
2021/08/06 08:23:37;;;;;;;7.45;2.25;;;19.70;81.50;;;;;;5054103;28;20377;-38
2021/08/06 08:26:03;;;;;;;3.92;2.55;;;20.10;80.90;;;;;;5054567;28;20524;-37
2021/08/06 08:28:30;;;;;;;6.53;2.35;;;20.30;78.10;;;;;;5053918;28;20377;-38
2021/08/06 08:30:56;;;;;;;3.55;1.63;;;20.20;79.00;;;;;;5054227;28;20021;-38
2021/08/06 08:33:22;;;;;;;3.53;2.78;;;20.20;79.20;;;;;;5053842;28;20072;-38
2021/08/06 08:35:48;;;;;;;2.45;1.92;;;20.30;78.90;;;;;;5054308;28;20111;-37
2021/08/06 08:38:14;;;;;;;3.20;2.03;;;20.30;78.80;;;;;;5053722;28;20033;-37
2021/08/06 08:40:40;;;;;;;4.30;1.88;;;20.70;77.20;;;;;;5052850;28;20036;-37
2021/08/06 08:43:07;;;;;;;4.88;2.22;;;20.50;76.50;;;;;;5052860;28;20108;-37
2021/08/06 08:45:36;;;;;;;3.50;2.33;;;21.10;75.70;;;;;;5052964;28;20020;-38
2021/08/06 08:48:04;;;;;;;5.40;2.08;;;21.10;74.10;;;;;;5052611;28;20091;-37
2021/08/06 08:50:29;;;;;;;2.85;2.58;;;20.60;76.50;;;;;;5052258;28;20033;-37
2021/08/06 08:52:55;;;;;;;2.65;2.45;;;20.30;77.30;;;;;;5052118;28;20036;-39
2021/08/06 08:55:21;;;;;;;4.45;2.63;;;20.20;77.40;;;;;;5052213;28;20104;-38
2021/08/06 08:57:47;;;;;;;5.20;2.60;;;19.80;79.30;;;;;;5052543;28;20469;-39
2021/08/06 09:00:15;;;;;;;5.57;3.40;;;19.30;81.50;;;;;;5052452;28;20025;-37
2021/08/06 09:02:41;;;;;;;7.00;3.13;;;19.00;82.70;;;;;;5052133;28;20154;-37
2021/08/06 09:05:13;;;;;;;3.95;3.55;;;18.80;85.20;;;;;;5052421;28;20132;-37
2021/08/06 09:07:39;;;;;;;8.60;4.47;;;18.50;86.60;;;;;;5052838;28;20083;-37
2021/08/06 09:10:09;;;;;;;7.82;4.40;;;18.30;87.60;;;;;;5052867;28;20021;-37
2021/08/06 09:13:04;;;;;;;;;;;18.00;89.20;;;;;;5053251;28;20021;-37
2021/08/06 09:15:52;;;;;;;7.40;6.00;;;18.10;89.90;;;;;;5052279;28;19904;-37
2021/08/06 09:18:27;;;;;;;6.55;4.75;;;18.10;90.60;;;;;;5052233;28;20020;-36
2021/08/06 09:20:56;;;;;;;7.93;4.57;;;18.20;89.90;;;;;;5051735;28;20090;-38
2021/08/06 09:23:44;;;;;;;5.22;4.72;;;18.30;89.90;;;;;;5052244;28;20060;-38
2021/08/06 09:26:33;;;;;;;6.13;3.78;;;19.00;89.70;;;;;;5052714;28;20418;-37
2021/08/06 09:29:14;;;;;;;3.67;2.38;;;19.80;84.40;;;;;;5052252;28;20029;-37
2021/08/06 09:31:43;;;;;;;3.42;1.92;;;19.80;83.10;;;;;;5052081;28;20033;-37
2021/08/06 09:34:12;;;;;;;6.10;2.20;;;20.20;82.60;;;;;;5052629;28;20040;-37
2021/08/06 09:36:50;;;;;;;5.18;2.47;;;20.10;84.30;;;;;;5051733;28;20025;-37
2021/08/06 09:39:17;;;;;;;3.75;2.72;;;20.40;81.20;;;;;;5052332;28;20041;-38
2021/08/06 09:41:45;;;;;;;5.93;2.40;;;20.10;81.30;;;;;;5051804;28;20025;-38
2021/08/06 09:44:27;;;;;;;8.85;2.97;;;20.10;80.40;;;;;;5051690;28;20103;-37
2021/08/06 09:46:53;;;;;;;4.88;2.38;;;19.90;80.10;;;;;;5052138;28;20031;-37
2021/08/06 09:49:20;;;;;;;7.10;2.75;;;19.80;81.60;;;;;;5053048;28;20157;-37
2021/08/06 09:51:51;;;;;;;5.18;2.17;;;20.10;79.90;;;;;;5055974;28;20496;-36
2021/08/06 09:54:27;;;;;;;5.20;2.35;;;20.60;78.70;;;;;;5056063;28;20029;-37
2021/08/06 09:57:06;;;;;;;7.78;2.08;;;20.50;79.00;;;;;;5056741;28;20044;-37
2021/08/06 09:59:33;;;;;;;8.18;3.20;;;20.60;77.90;;;;;;5056082;28;20029;-38
2021/08/06 10:02:17;;;;;;;9.65;3.70;;;20.80;79.20;;;;;;5055451;28;20492;-37
2021/08/06 10:05:03;;;;;;;5.53;2.72;;;21.10;76.60;;;;;;5055660;28;20437;-37
2021/08/06 10:07:30;;;;;;;8.15;2.60;;;20.90;76.20;;;;;;5055779;28;20029;-38
2021/08/06 10:09:57;;;;;;;9.77;3.58;;;20.70;77.60;;;;;;5055728;28;20053;-37
2021/08/06 10:12:22;;;;;;;4.78;3.08;;;20.90;76.20;;;;;;5054963;28;20029;-37
2021/08/06 10:14:48;;;;;;;9.35;3.50;;;21.30;74.60;;;;;;5054688;28;20384;-37
2021/08/06 10:17:14;;;;;;;7.80;3.25;;;21.60;74.70;;;;;;5055585;28;20418;-37
2021/08/06 10:19:41;;;;;;;6.95;3.35;;;21.40;73.20;;;;;;5055764;28;20100;-37
2021/08/06 10:22:09;;;;;;;4.57;3.05;;;21.50;73.80;;;;;;5055671;28;20021;-37
2021/08/06 10:24:36;;;;;;;3.95;3.08;;;21.70;71.50;;;;;;5055574;28;20073;-36
2021/08/06 10:27:02;;;;;;;5.32;3.05;;;20.90;74.10;;;;;;5055686;28;20025;-37
2021/08/06 10:29:28;;;;;;;3.30;2.65;;;20.90;74.40;;;;;;5055376;28;20031;-37
2021/08/06 10:32:14;;;;;;;6.25;2.92;;;20.80;74.00;;;;;;5055480;28;20134;-37
2021/08/06 10:35:03;;;;;;;3.55;2.63;;;20.70;75.60;;;;;;5055375;28;20029;-37
2021/08/06 10:37:50;;;;;;;4.70;3.13;;;20.80;74.60;;;;;;5055092;28;20219;-37
2021/08/06 10:40:39;;;;;;;7.68;3.92;;;20.90;74.90;;;;;;5053753;28;20032;-37
2021/08/06 10:43:11;;;;;;;4.65;3.05;;;20.80;74.80;;;;;;5055005;28;20041;-39
2021/08/06 10:45:46;;;;;;;4.63;3.05;;;20.50;73.90;;;;;;5055937;28;20421;-36
2021/08/06 10:48:30;;;;;;;6.50;3.88;;;20.60;74.60;;;;;;5055655;28;20043;-36
2021/08/06 10:51:18;;;;;;;3.38;2.80;;;21.10;74.20;;;;;;5055080;28;20032;-37
2021/08/06 10:54:06;;;;;;;8.30;4.22;;;21.20;73.60;;;;;;5055225;28;20453;-36
2021/08/06 10:56:35;;;;;;;5.72;3.42;;;21.20;73.80;;;;;;5054564;28;20082;-37
2021/08/06 10:59:10;;;;;;;7.28;3.55;;;21.50;72.50;;;;;;5054729;28;20037;-37
2021/08/06 11:01:44;;;;;;;12.70;2.95;;;21.60;70.90;;;;;;5054116;28;20029;-37
2021/08/06 11:04:13;;;;;;;5.20;3.55;;;21.60;71.90;;;;;;5055191;28;20025;-38
2021/08/06 11:06:51;;;;;;;5.28;3.72;;;21.40;70.00;;;;;;5055036;28;20021;-49
2021/08/06 11:09:23;;;;;;;7.80;3.58;;;21.10;71.70;;;;;;5055028;28;20025;-47
2021/08/06 11:12:12;;;;;;;5.63;3.15;;;21.50;71.00;;;;;;5054415;28;20021;-49
2021/08/06 11:14:40;;;;;;;5.72;3.30;;;23.30;65.40;;;;;;5054836;28;20032;-48
2021/08/06 11:17:24;;;;;;;4.28;3.58;;;23.40;65.10;;;;;;5054504;28;20025;-48
2021/08/06 11:19:54;;;;;;;5.50;3.70;;;23.50;64.40;;;;;;5054723;28;20029;-49
2021/08/06 11:22:25;;;;;;;5.85;3.90;;;22.40;66.70;;;;;;5054886;28;20040;-48
2021/08/06 11:24:51;;;;;;;;;;;21.90;67.80;;;;;;5054997;28;20057;-49
2021/08/06 11:27:19;;;;;;;6.68;3.85;;;21.50;69.10;;;;;;5053003;28;19911;-49
2021/08/06 11:30:08;;;;;;;5.88;3.45;;;21.10;71.60;;;;;;5054297;28;20508;-48
2021/08/06 11:32:57;;;;;;;3.22;2.45;;;20.30;75.50;;;;;;5054172;28;20167;-47
2021/08/06 11:35:44;;;;;;;5.50;1.58;;;19.50;75.90;;;;;;5054450;28;20469;-47
2021/08/06 11:38:12;;;;;;;2.00;1.80;;;19.10;77.60;;;;;;5052897;28;20025;-48
2021/08/06 11:40:40;;;;;;;4.22;1.73;;;18.80;78.90;;;;;;5054331;28;20068;-47
2021/08/06 11:43:19;;;;;;;6.18;1.30;;;18.80;77.30;;;;;;5054225;28;20024;-46
2021/08/06 11:45:48;;;;;;;5.03;2.58;;;19.00;77.10;;;;;;5054288;28;20376;-47
2021/08/06 11:48:15;;;;;;;5.32;1.70;;;19.50;76.20;;;;;;5052871;28;20417;-49
2021/08/06 11:50:48;;;;;;;2.67;1.58;;;19.70;76.00;;;;;;5053860;28;20095;-51
2021/08/06 11:53:19;;;;;;;2.05;1.63;;;19.90;76.80;;;;;;5053710;28;20025;-49
2021/08/06 11:55:47;;;;;;;5.32;2.80;;;19.70;76.50;;;;;;5053982;28;20053;-50
2021/08/06 11:58:13;;;;;;;4.28;1.88;;;19.70;76.30;;;;;;5054128;28;20108;-52
2021/08/06 12:00:42;;;;;;;9.63;1.60;;;19.70;76.70;;;;;;5053906;28;20021;-48
2021/08/06 12:03:13;;;;;;;12.20;2.55;;;19.50;78.00;;;;;;5054212;28;20149;-50
2021/08/06 12:05:46;;;;;;;3.95;2.33;;;19.50;77.70;;;;;;5053928;28;20032;-50
2021/08/06 12:08:22;;;;;;;2.13;1.63;;;19.80;77.90;;;;;;5054523;28;20032;-49
2021/08/06 12:10:51;;;;;;;3.88;2.15;;;20.20;76.40;;;;;;5054263;28;20082;-49
2021/08/06 12:13:21;;;;;;;3.17;2.30;;;20.20;77.40;;;;;;5052574;28;20021;-48
2021/08/06 12:15:47;;;;;;;8.95;2.35;;;20.50;75.70;;;;;;5053844;28;20035;-51
2021/08/06 12:18:20;;;;;;;3.50;1.90;;;20.50;75.60;;;;;;5053404;28;20036;-47
2021/08/06 12:21:01;;;;;;;5.00;1.70;;;20.30;76.20;;;;;;5053590;28;20083;-47
2021/08/06 12:23:27;;;;;;;3.10;1.92;;;20.60;76.10;;;;;;5053601;28;20017;-48
2021/08/06 12:26:08;;;;;;;11.73;3.20;;;20.70;75.60;;;;;;5053636;28;20337;-51
2021/08/06 12:28:35;;;;;;;4.95;2.60;;;20.60;76.80;;;;;;5053533;28;20029;-47
2021/08/06 12:31:11;;;;;;;12.07;4.57;;;20.60;77.30;;;;;;5053871;28;20037;-50
2021/08/06 12:33:38;;;;;;;6.78;2.63;;;21.30;75.80;;;;;;5053272;28;20095;-51
2021/08/06 12:36:11;;;;;;;3.10;2.22;;;21.50;75.60;;;;;;5053233;28;20029;-49
2021/08/06 12:38:37;;;;;;;5.75;2.70;;;22.30;71.00;;;;;;5053000;28;20045;-49
2021/08/06 12:41:03;;;;;;;4.22;2.22;;;23.20;69.90;;;;;;5051673;28;20107;-52
2021/08/06 12:43:29;;;;;;;6.13;2.50;;;24.50;63.90;;;;;;5053229;28;20036;-49
2021/08/06 12:46:12;;;;;;;4.15;2.08;;;24.10;64.00;;;;;;5051248;28;20071;-50
2021/08/06 12:49:08;;;;;;;3.53;2.03;;;23.00;69.60;;;;;;5052594;28;20070;-49
2021/08/06 12:51:35;;;;;;;2.85;2.00;;;24.30;65.80;;;;;;5052719;28;20033;-48
2021/08/06 12:54:01;;;;;;;4.15;2.35;;;24.60;63.10;;;;;;5052776;28;20103;-49
2021/08/06 12:56:27;;;;;;;4.13;2.15;;;24.40;61.20;;;;;;5052801;28;20059;-50